KPHT/PHT METAR and TAF weather

Enter ICAO airport designator
Station Type Date Time Source
KPHT METAR 2022/12/05 15:55 UTC NOAA

KPHT 051555Z AUTO 14004KT 3/4SM BR OVC003 06/06 A3001 RMK A01 P0001


Station Type Date Time Source
KPHT Decoded METAR 2022/12/05 15:55 UTC NOAA

Station name not available
Dec 05, 2022 - 10:55 AM EST / 2022.12.05 1555 UTC
Wind: from the SE (140 degrees) at 5 MPH (4 KT):0
Visibility: 3/4 mile(s):0
Sky conditions: overcast
Weather: mist
Precipitation last hour: 0.01 inches
Temperature: 42 F (6 C)
Dew Point: 42 F (6 C)
Relative Humidity: 100%
Pressure (altimeter): 30.01 in. Hg (1016 hPa)
ob: KPHT 051555Z AUTO 14004KT 3/4SM BR OVC003 06/06 A3001 RMK A01 P0001
cycle: 16

Station Type Date Time Source
KPHT TAF UTC NOAA

Error!

Example: see airport list